createdAt,value
2023-03-17T00:01:09.923Z,-0.44
2023-03-17T00:04:12.952Z,-0.30
2023-03-17T00:07:17.906Z,-0.32
2023-03-17T00:10:23.286Z,-0.45
2023-03-17T00:13:25.988Z,-0.50
2023-03-17T00:16:41.902Z,-0.22
2023-03-17T00:19:44.948Z,-0.15
2023-03-17T00:22:46.953Z,-0.07
2023-03-17T00:25:49.965Z,-0.12
2023-03-17T00:28:52.201Z,-0.13
2023-03-17T00:31:57.788Z,-0.10
2023-03-17T00:34:59.813Z,-0.14
2023-03-17T00:38:01.885Z,-0.17
2023-03-17T00:41:05.419Z,0.15
2023-03-17T00:44:07.412Z,0.16
2023-03-17T00:47:12.011Z,0.12
2023-03-17T00:50:17.549Z,0.40
2023-03-17T00:53:21.775Z,0.44
2023-03-17T00:56:23.894Z,0.52
2023-03-17T00:59:52.517Z,0.48
2023-03-17T01:02:56.878Z,0.54
2023-03-17T01:05:59.828Z,0.66
2023-03-17T01:09:01.900Z,0.66
2023-03-17T01:12:04.183Z,0.68
2023-03-17T01:15:07.217Z,0.62
2023-03-17T01:18:14.202Z,0.52
2023-03-17T01:21:16.210Z,0.55
2023-03-17T01:24:18.226Z,0.51
2023-03-17T01:27:22.176Z,0.58
2023-03-17T01:30:37.704Z,0.56
2023-03-17T01:33:39.690Z,0.54
2023-03-17T01:36:42.189Z,0.50
2023-03-17T01:39:44.209Z,0.64
2023-03-17T01:43:02.406Z,0.74
2023-03-17T01:46:07.488Z,0.80
2023-03-17T01:49:25.235Z,0.84
2023-03-17T01:52:29.185Z,0.82
2023-03-17T01:55:32.200Z,0.74
2023-03-17T01:58:34.772Z,0.71
2023-03-17T02:01:45.369Z,0.67
2023-03-17T02:04:47.538Z,0.63
2023-03-17T02:07:49.620Z,0.63
2023-03-17T02:10:52.533Z,0.55
2023-03-17T02:13:54.913Z,0.48
2023-03-17T02:16:57.611Z,0.40
2023-03-17T02:20:18.603Z,0.35
2023-03-17T02:23:24.043Z,0.29
2023-03-17T02:26:26.997Z,0.23
2023-03-17T02:29:29.039Z,0.34
2023-03-17T02:32:31.110Z,0.38
2023-03-17T02:35:33.151Z,0.39
2023-03-17T02:38:36.328Z,0.27
2023-03-17T02:41:38.438Z,0.23
2023-03-17T02:44:40.663Z,0.24
2023-03-17T02:47:42.844Z,0.19
2023-03-17T02:50:45.171Z,-0.06
2023-03-17T02:53:47.202Z,0.10
2023-03-17T02:56:49.241Z,0.05
2023-03-17T02:59:51.525Z,0.01
2023-03-17T03:02:53.516Z,-0.04
2023-03-17T03:05:55.635Z,-0.12
2023-03-17T03:08:57.683Z,-0.03
2023-03-17T03:11:59.938Z,-0.05
2023-03-17T03:15:01.886Z,-0.17
2023-03-17T03:18:04.068Z,-0.34
2023-03-17T03:21:07.525Z,-0.57
2023-03-17T03:24:09.889Z,-0.29
2023-03-17T03:27:12.094Z,-0.27
2023-03-17T03:30:14.757Z,-0.55
2023-03-17T03:33:17.869Z,-0.36
2023-03-17T03:36:20.723Z,-0.45
2023-03-17T03:39:22.915Z,-0.30
2023-03-17T03:42:24.909Z,-0.36
2023-03-17T03:45:27.181Z,-0.44
2023-03-17T03:48:29.329Z,-0.63
2023-03-17T03:51:31.330Z,-0.45
2023-03-17T03:54:33.385Z,-0.42
2023-03-17T03:57:35.786Z,-0.33
2023-03-17T04:00:37.909Z,-0.23
2023-03-17T04:03:40.073Z,-0.33
2023-03-17T04:06:42.046Z,-0.40
2023-03-17T04:09:44.122Z,-0.68
2023-03-17T04:12:46.976Z,-0.28
2023-03-17T04:15:49.026Z,-0.27
2023-03-17T04:18:51.409Z,-0.17
2023-03-17T04:21:54.758Z,-0.20
2023-03-17T04:24:57.046Z,-0.13
2023-03-17T04:27:58.985Z,-0.07
2023-03-17T04:31:00.997Z,-0.25
2023-03-17T04:34:03.078Z,-0.41
2023-03-17T04:37:05.181Z,-0.24
2023-03-17T04:40:10.978Z,-0.03
2023-03-17T04:43:12.954Z,0.15
2023-03-17T04:46:15.101Z,0.16
2023-03-17T04:49:17.319Z,0.26
2023-03-17T04:52:19.317Z,0.29
2023-03-17T04:55:21.582Z,0.37
2023-03-17T04:58:30.886Z,0.49
2023-03-17T05:01:33.278Z,0.52
2023-03-17T05:04:35.257Z,0.61
2023-03-17T05:07:37.221Z,0.63
2023-03-17T05:10:39.167Z,0.62
2023-03-17T05:13:41.424Z,0.57
2023-03-17T05:16:43.620Z,0.59
2023-03-17T05:19:45.654Z,0.73
2023-03-17T05:22:47.648Z,0.60
2023-03-17T05:25:49.819Z,0.70
2023-03-17T05:28:51.850Z,0.95
2023-03-17T05:31:54.158Z,1.04
2023-03-17T05:34:56.169Z,1.13
2023-03-17T05:37:58.281Z,1.10
2023-03-17T05:41:00.363Z,1.19
2023-03-17T05:44:02.366Z,1.36
2023-03-17T05:47:04.432Z,1.36
2023-03-17T05:50:06.856Z,1.55
2023-03-17T05:53:09.980Z,1.78
2023-03-17T05:56:12.946Z,2.01
2023-03-17T05:59:16.934Z,2.10
2023-03-17T06:02:18.927Z,2.30
2023-03-17T06:05:20.969Z,2.39
2023-03-17T06:08:23.334Z,1.92
2023-03-17T06:11:25.454Z,2.57
2023-03-17T06:14:27.585Z,2.66
2023-03-17T06:17:29.696Z,2.75
2023-03-17T06:20:33.617Z,2.86
2023-03-17T06:23:35.602Z,3.05
2023-03-17T06:26:37.729Z,3.27
2023-03-17T06:29:39.797Z,3.27
2023-03-17T06:32:42.077Z,3.46
2023-03-17T06:35:44.218Z,3.54
2023-03-17T06:38:46.396Z,3.50
2023-03-17T06:41:49.312Z,3.59
2023-03-17T06:44:53.560Z,3.60
2023-03-17T06:47:55.750Z,3.34
2023-03-17T06:50:57.896Z,3.38
2023-03-17T06:53:59.889Z,3.47
2023-03-17T06:57:02.232Z,3.54
2023-03-17T07:00:08.738Z,3.79
2023-03-17T07:03:11.448Z,3.72
2023-03-17T07:06:13.510Z,3.96
2023-03-17T07:09:15.779Z,4.01
2023-03-17T07:12:17.806Z,4.27
2023-03-17T07:15:21.030Z,4.41
2023-03-17T07:18:23.868Z,4.63
2023-03-17T07:21:25.905Z,4.77
2023-03-17T07:24:28.099Z,4.82
2023-03-17T07:27:31.549Z,5.07
2023-03-17T07:30:33.893Z,5.25
2023-03-17T07:33:35.875Z,5.42
2023-03-17T07:36:37.858Z,5.63
2023-03-17T07:39:40.519Z,5.91
2023-03-17T07:42:42.551Z,6.15
2023-03-17T07:45:45.218Z,6.69
2023-03-17T07:48:47.434Z,7.57
2023-03-17T07:51:49.448Z,8.53
2023-03-17T07:54:52.556Z,9.67
2023-03-17T07:57:54.567Z,11.45
2023-03-17T08:00:57.985Z,13.88
2023-03-17T08:04:00.666Z,15.60
2023-03-17T08:07:03.363Z,17.35
2023-03-17T08:10:09.201Z,18.62
2023-03-17T08:13:11.276Z,19.77
2023-03-17T08:16:13.797Z,19.78
2023-03-17T08:19:16.494Z,19.79
2023-03-17T08:22:18.544Z,19.56
2023-03-17T08:25:20.634Z,19.21
2023-03-17T08:28:22.694Z,19.63
2023-03-17T08:31:25.285Z,18.62
2023-03-17T08:34:27.415Z,19.14
2023-03-17T08:37:29.431Z,19.13
2023-03-17T08:40:31.898Z,19.62
2023-03-17T08:43:36.309Z,19.91
2023-03-17T08:46:38.330Z,19.01
2023-03-17T08:49:40.344Z,17.93
2023-03-17T08:52:42.482Z,16.27
2023-03-17T08:55:44.638Z,14.75
2023-03-17T08:58:47.078Z,14.28
2023-03-17T09:01:49.221Z,13.57
2023-03-17T09:04:51.231Z,13.10
2023-03-17T09:07:53.720Z,12.81
2023-03-17T09:10:55.764Z,12.46
2023-03-17T09:13:57.911Z,12.45
2023-03-17T09:16:59.902Z,12.45
2023-03-17T09:20:02.091Z,11.92
2023-03-17T09:23:08.356Z,11.83
2023-03-17T09:26:10.938Z,11.79
2023-03-17T09:29:13.258Z,11.45
2023-03-17T09:32:16.510Z,12.07
2023-03-17T09:35:18.789Z,12.31
2023-03-17T09:38:21.705Z,12.19
2023-03-17T09:41:42.678Z,12.39
2023-03-17T09:45:03.823Z,12.37
2023-03-17T09:48:27.659Z,12.64
2023-03-17T09:51:32.563Z,12.50
2023-03-17T09:54:38.338Z,12.46
2023-03-17T09:57:41.058Z,12.64
2023-03-17T10:00:43.973Z,12.53
2023-03-17T10:03:47.486Z,12.47
2023-03-17T10:06:52.177Z,12.51
2023-03-17T10:10:12.777Z,12.55
2023-03-17T10:13:33.265Z,12.54
2023-03-17T10:16:43.228Z,12.77
2023-03-17T10:20:00.009Z,12.96
2023-03-17T10:23:07.919Z,13.34
2023-03-17T10:26:31.796Z,13.49
2023-03-17T10:29:33.987Z,13.70
2023-03-17T10:32:39.270Z,13.81
2023-03-17T10:35:41.503Z,14.03
2023-03-17T10:39:05.577Z,14.22
2023-03-17T10:42:14.163Z,14.25
2023-03-17T10:45:25.938Z,14.14
2023-03-17T10:48:30.296Z,14.56
2023-03-17T10:51:38.096Z,14.75
2023-03-17T10:54:40.623Z,14.55
2023-03-17T10:57:53.487Z,14.48
2023-03-17T11:01:06.016Z,14.62
2023-03-17T11:04:28.635Z,14.30
2023-03-17T11:07:40.840Z,14.11
2023-03-17T11:10:43.332Z,14.06
2023-03-17T11:13:45.480Z,14.25
2023-03-17T11:16:55.504Z,14.12
2023-03-17T11:20:22.322Z,13.77
2023-03-17T11:23:42.337Z,13.62
2023-03-17T11:26:56.770Z,13.78
2023-03-17T11:30:13.560Z,13.68
2023-03-17T11:33:36.508Z,13.89
2023-03-17T11:36:59.158Z,13.49
2023-03-17T11:40:19.971Z,13.34
2023-03-17T11:43:30.768Z,13.24
2023-03-17T11:46:57.926Z,13.39
2023-03-17T11:50:34.982Z,12.74
2023-03-17T11:53:55.649Z,12.59
2023-03-17T11:57:10.808Z,12.70
2023-03-17T12:00:28.297Z,12.99
2023-03-17T12:03:39.482Z,13.22
2023-03-17T12:06:56.133Z,13.47
2023-03-17T12:10:19.723Z,13.03
2023-03-17T12:13:24.565Z,13.30
2023-03-17T12:16:46.703Z,13.28
2023-03-17T12:20:07.314Z,13.37
2023-03-17T12:23:19.283Z,13.65
2023-03-17T12:27:00.783Z,13.68
2023-03-17T12:30:38.977Z,13.61
2023-03-17T12:34:05.472Z,13.67
2023-03-17T12:37:07.889Z,13.68
2023-03-17T12:40:15.516Z,13.35
2023-03-17T12:43:29.425Z,13.14
2023-03-17T12:46:43.592Z,13.15
2023-03-17T12:50:07.170Z,12.65
2023-03-17T12:53:32.688Z,13.45
2023-03-17T12:56:36.800Z,13.50
2023-03-17T12:59:42.913Z,13.43
2023-03-17T13:02:49.791Z,13.51
2023-03-17T13:05:58.803Z,13.46
2023-03-17T13:09:36.184Z,13.43
2023-03-17T13:12:41.676Z,13.54
2023-03-17T13:15:43.728Z,13.54
2023-03-17T13:18:48.224Z,13.54
2023-03-17T13:22:05.756Z,13.72
2023-03-17T13:25:35.682Z,13.64
2023-03-17T13:28:37.675Z,13.43
2023-03-17T13:31:39.801Z,13.43
2023-03-17T13:34:49.278Z,13.38
2023-03-17T13:38:09.501Z,13.60
2023-03-17T13:41:17.551Z,13.20
2023-03-17T13:45:01.360Z,13.01
2023-03-17T13:48:33.870Z,13.03
2023-03-17T13:51:36.795Z,13.09
2023-03-17T13:54:49.326Z,13.23
2023-03-17T13:58:23.471Z,13.26
2023-03-17T14:01:28.342Z,13.42
2023-03-17T14:04:40.380Z,13.46
2023-03-17T14:07:49.557Z,13.33
2023-03-17T14:10:57.391Z,13.22
2023-03-17T14:14:31.193Z,13.02
2023-03-17T14:17:47.014Z,12.97
2023-03-17T14:20:57.025Z,12.87
2023-03-17T14:24:01.844Z,12.73
2023-03-17T14:27:07.902Z,12.69
2023-03-17T14:30:20.036Z,12.65
2023-03-17T14:33:27.696Z,12.66
2023-03-17T14:36:34.747Z,12.69
2023-03-17T14:39:45.413Z,12.64
2023-03-17T14:42:47.465Z,12.57
2023-03-17T14:45:52.881Z,12.63
2023-03-17T14:49:03.657Z,12.49
2023-03-17T14:52:05.906Z,12.39
2023-03-17T14:55:08.487Z,12.39
2023-03-17T14:58:30.691Z,12.35
2023-03-17T15:01:39.813Z,12.37
2023-03-17T15:04:53.742Z,12.26
2023-03-17T15:07:55.693Z,12.13
2023-03-17T15:11:02.776Z,12.04
2023-03-17T15:14:14.982Z,11.98
2023-03-17T15:17:20.562Z,11.87
2023-03-17T15:20:23.505Z,11.87
2023-03-17T15:23:29.725Z,11.50
2023-03-17T15:26:32.103Z,11.71
2023-03-17T15:29:34.580Z,11.59
2023-03-17T15:32:36.772Z,11.52
2023-03-17T15:35:38.986Z,11.43
2023-03-17T15:38:41.420Z,11.38
2023-03-17T15:41:43.436Z,11.32
2023-03-17T15:44:45.591Z,11.25
2023-03-17T15:47:47.676Z,11.17
2023-03-17T15:50:51.355Z,10.96
2023-03-17T15:53:53.376Z,11.00
2023-03-17T15:56:56.140Z,10.98
2023-03-17T15:59:58.202Z,10.81
2023-03-17T16:03:04.524Z,10.61
2023-03-17T16:06:14.752Z,10.72
2023-03-17T16:09:17.887Z,10.52
2023-03-17T16:12:19.999Z,10.42
2023-03-17T16:15:24.436Z,10.41
2023-03-17T16:18:39.142Z,10.34
2023-03-17T16:21:42.622Z,10.23
2023-03-17T16:24:44.906Z,10.13
2023-03-17T16:27:48.979Z,10.06
2023-03-17T16:30:52.322Z,10.03
2023-03-17T16:33:55.705Z,9.88
2023-03-17T16:36:57.826Z,9.86
2023-03-17T16:40:00.000Z,9.81
2023-03-17T16:43:10.349Z,9.65
2023-03-17T16:46:19.821Z,9.53
2023-03-17T16:49:23.170Z,9.57
2023-03-17T16:52:25.926Z,9.36
2023-03-17T16:55:29.678Z,9.39
2023-03-17T16:58:37.437Z,9.29
2023-03-17T17:01:40.045Z,9.20
2023-03-17T17:04:42.185Z,9.03
2023-03-17T17:07:45.568Z,8.85
2023-03-17T17:10:47.612Z,8.85
2023-03-17T17:13:50.770Z,8.78
2023-03-17T17:16:53.163Z,8.65
2023-03-17T17:19:55.327Z,8.58
2023-03-17T17:22:59.562Z,8.52
2023-03-17T17:26:01.929Z,8.48
2023-03-17T17:29:04.521Z,8.33
2023-03-17T17:32:07.261Z,8.08
2023-03-17T17:35:11.528Z,8.14
2023-03-17T17:38:22.053Z,8.01
2023-03-17T17:41:25.013Z,7.63
2023-03-17T17:44:28.827Z,7.93
2023-03-17T17:47:33.282Z,7.86
2023-03-17T17:50:36.077Z,7.97
2023-03-17T17:53:39.151Z,7.95
2023-03-17T17:56:46.988Z,7.75
2023-03-17T17:59:50.114Z,7.75
2023-03-17T18:02:52.906Z,7.61
2023-03-17T18:05:57.428Z,7.64
2023-03-17T18:09:00.389Z,7.58
2023-03-17T18:12:04.167Z,7.57
2023-03-17T18:15:08.605Z,7.68
2023-03-17T18:18:12.711Z,7.59
2023-03-17T18:21:16.705Z,7.71
2023-03-17T18:24:20.150Z,7.64
2023-03-17T18:27:23.246Z,7.42
2023-03-17T18:30:29.088Z,7.55
2023-03-17T18:33:34.656Z,7.68
2023-03-17T18:36:37.512Z,7.71
2023-03-17T18:39:41.886Z,7.73
2023-03-17T18:42:45.129Z,7.67
2023-03-17T18:45:55.212Z,7.64
2023-03-17T18:48:57.856Z,7.62
2023-03-17T18:52:02.713Z,7.58
2023-03-17T18:55:07.310Z,7.48
2023-03-17T18:58:10.738Z,7.39
2023-03-17T19:01:13.877Z,7.44
2023-03-17T19:04:18.575Z,7.28
2023-03-17T19:07:23.156Z,7.04
2023-03-17T19:10:27.966Z,7.08
2023-03-17T19:13:31.088Z,6.36
2023-03-17T19:16:37.807Z,6.97
2023-03-17T19:19:42.038Z,6.91
2023-03-17T19:22:47.175Z,6.98
2023-03-17T19:25:51.224Z,7.16
2023-03-17T19:28:57.015Z,7.06
2023-03-17T19:32:00.551Z,7.01
2023-03-17T19:35:07.796Z,6.96
2023-03-17T19:38:12.113Z,6.85
2023-03-17T19:41:17.808Z,6.83
2023-03-17T19:44:21.047Z,6.81
2023-03-17T19:47:24.417Z,6.66
2023-03-17T19:50:27.296Z,6.53
2023-03-17T19:53:30.103Z,6.33
2023-03-17T19:56:33.336Z,6.37
2023-03-17T19:59:36.688Z,6.43
2023-03-17T20:02:40.521Z,6.31
2023-03-17T20:05:46.631Z,5.69
2023-03-17T20:08:49.422Z,6.30
2023-03-17T20:11:53.599Z,6.40
2023-03-17T20:14:56.333Z,6.33
2023-03-17T20:17:59.506Z,6.10
2023-03-17T20:21:06.351Z,6.25
2023-03-17T20:24:12.974Z,6.27
2023-03-17T20:27:16.539Z,5.87
2023-03-17T20:30:20.770Z,6.03
2023-03-17T20:33:25.133Z,6.05
2023-03-17T20:36:29.051Z,6.00
2023-03-17T20:39:33.007Z,6.02
2023-03-17T20:42:37.027Z,5.74
2023-03-17T20:45:39.678Z,5.94
2023-03-17T20:48:42.294Z,6.03
2023-03-17T20:51:45.364Z,5.77
2023-03-17T20:54:50.110Z,6.04
2023-03-17T20:57:52.875Z,6.04
2023-03-17T21:00:56.519Z,6.05
2023-03-17T21:04:00.005Z,6.00
2023-03-17T21:07:04.015Z,5.66
2023-03-17T21:10:06.943Z,5.83
2023-03-17T21:13:09.962Z,5.84
2023-03-17T21:16:27.988Z,5.80
2023-03-17T21:19:30.725Z,5.75
2023-03-17T21:22:35.009Z,5.79
2023-03-17T21:25:37.643Z,5.74
2023-03-17T21:28:41.607Z,5.76
2023-03-17T21:31:43.870Z,5.66
2023-03-17T21:34:46.725Z,5.61
2023-03-17T21:37:49.776Z,5.59
2023-03-17T21:40:52.011Z,5.51
2023-03-17T21:43:55.334Z,5.54
2023-03-17T21:46:57.780Z,5.61
2023-03-17T21:50:00.114Z,5.61
2023-03-17T21:53:02.503Z,5.60
2023-03-17T21:56:04.883Z,5.63
2023-03-17T21:59:11.115Z,5.52
2023-03-17T22:02:13.886Z,5.63
2023-03-17T22:05:16.595Z,5.53
2023-03-17T22:08:19.224Z,5.30
2023-03-17T22:11:21.884Z,5.41
2023-03-17T22:14:23.958Z,5.48
2023-03-17T22:17:26.288Z,5.52
2023-03-17T22:20:30.275Z,5.58
2023-03-17T22:23:37.419Z,5.49
2023-03-17T22:26:39.571Z,4.96
2023-03-17T22:29:41.810Z,5.52
2023-03-17T22:32:43.832Z,5.54
2023-03-17T22:35:46.185Z,5.44
2023-03-17T22:38:48.408Z,5.50
2023-03-17T22:41:50.349Z,5.35
2023-03-17T22:44:52.392Z,5.29
2023-03-17T22:47:54.529Z,5.25
2023-03-17T22:50:56.530Z,5.20
2023-03-17T22:53:58.572Z,5.04
2023-03-17T22:57:00.761Z,5.15
2023-03-17T23:00:08.774Z,4.93
2023-03-17T23:03:10.958Z,5.13
2023-03-17T23:06:13.485Z,5.13
2023-03-17T23:09:15.728Z,5.14
2023-03-17T23:12:17.993Z,5.12
2023-03-17T23:15:21.203Z,5.15
2023-03-17T23:18:24.311Z,5.00
2023-03-17T23:21:30.974Z,4.98
2023-03-17T23:24:33.036Z,4.97
2023-03-17T23:27:35.003Z,5.10
2023-03-17T23:30:37.637Z,5.15
2023-03-17T23:33:39.910Z,5.12
2023-03-17T23:36:42.435Z,5.08
2023-03-17T23:39:44.940Z,5.06
2023-03-17T23:42:50.833Z,4.96
2023-03-17T23:45:54.062Z,4.73
2023-03-17T23:48:56.523Z,4.97
2023-03-17T23:51:58.878Z,4.97
2023-03-17T23:55:01.427Z,4.93
2023-03-17T23:58:03.776Z,5.01
